Time;durP1;ratioP1;P1;durP2;ratioP2;P2;SDS_P1;SDS_P2;PMS_P1;PMS_P2;Temp;Humidity;BMP_temperature;BMP_pressure;BME280_temperature;BME280_humidity;BME280_pressure;Samples;Min_cycle;Max_cycle;Signal;HPM_P1;HPM_P2
2021/08/29 00:01:47;;;;;;;0.60;0.60;;;;;;;15.45;76.47;98935.81;5116463;27;43829;-81
2021/08/29 00:04:15;;;;;;;0.50;0.50;;;;;;;15.44;76.46;98929.63;5120194;27;41490;-82
2021/08/29 00:06:43;;;;;;;0.40;0.40;;;;;;;15.43;76.50;98922.59;5103656;28;38931;-81
2021/08/29 00:09:11;;;;;;;0.40;0.40;;;;;;;15.43;76.51;98917.25;5128108;27;42608;-82
2021/08/29 00:11:38;;;;;;;0.80;0.80;;;;;;;15.42;76.42;98915.56;5116626;27;42898;-82
2021/08/29 00:14:06;;;;;;;0.50;0.50;;;;;;;15.45;76.61;98915.28;5117815;27;41511;-80
2021/08/29 00:16:33;;;;;;;0.57;0.57;;;;;;;15.44;76.22;98902.94;5117386;27;39752;-83
2021/08/29 00:19:01;;;;;;;1.90;0.70;;;;;;;15.48;76.41;98908.84;5109045;27;40738;-83
2021/08/29 00:21:29;;;;;;;0.40;0.40;;;;;;;15.48;76.32;98911.53;5095069;27;42109;-80
2021/08/29 00:23:58;;;;;;;0.47;0.40;;;;;;;15.46;76.73;98903.66;5098468;27;42044;-83
2021/08/29 00:26:25;;;;;;;0.60;0.60;;;;;;;15.48;76.77;98903.53;5118712;27;40417;-80
2021/08/29 00:28:52;;;;;;;0.50;0.50;;;;;;;15.48;76.51;98902.66;5109207;27;40576;-81
2021/08/29 00:31:20;;;;;;;0.63;0.63;;;;;;;15.46;76.72;98906.31;5097014;27;42680;-79
2021/08/29 00:33:48;;;;;;;1.03;0.50;;;;;;;15.30;76.87;98881.88;5105877;28;42133;-80
2021/08/29 00:36:15;;;;;;;0.50;0.50;;;;;;;15.45;76.98;98904.63;5115489;27;39177;-81
2021/08/29 00:38:43;;;;;;;0.47;0.47;;;;;;;15.43;77.14;98895.91;5123208;27;42010;-83
2021/08/29 00:41:12;;;;;;;0.70;0.60;;;;;;;15.44;77.20;98905.63;5113105;27;43036;-82
2021/08/29 00:43:40;;;;;;;0.50;0.50;;;;;;;15.44;77.10;98899.44;5107692;28;42174;-82
2021/08/29 00:46:08;;;;;;;0.40;0.40;;;;;;;15.47;77.02;98912.50;5119111;27;40028;-81
2021/08/29 00:48:36;;;;;;;0.53;0.53;;;;;;;15.46;77.26;98903.66;5100025;28;41358;-80
2021/08/29 00:51:04;;;;;;;0.47;0.47;;;;;;;15.42;77.35;98899.56;5143897;27;43161;-82
2021/08/29 00:53:33;;;;;;;0.60;0.60;;;;;;;15.43;77.13;98898.56;5098565;27;42458;-81
2021/08/29 00:56:02;;;;;;;1.37;1.10;;;;;;;15.44;77.42;98900.28;5120727;27;40452;-81
2021/08/29 00:58:33;;;;;;;0.50;0.50;;;;;;;15.36;77.21;98884.03;5123176;27;42643;-82
2021/08/29 01:01:02;;;;;;;0.70;0.70;;;;;;;15.45;77.15;98904.63;5094570;28;41858;-80
2021/08/29 01:03:36;;;;;;;0.60;0.60;;;;;;;15.44;77.39;98892.28;5092191;28;42455;-82
2021/08/29 01:06:12;;;;;;;0.87;0.50;;;;;;;15.28;77.34;98864.28;5097584;28;40552;-82
2021/08/29 01:09:00;;;;;;;0.70;0.70;;;;;;;15.50;76.96;98895.41;5124851;27;42018;-82
2021/08/29 01:11:28;;;;;;;0.50;0.50;;;;;;;15.49;77.05;98899.03;5114877;27;41532;-82
2021/08/29 01:14:04;;;;;;;0.60;0.60;;;;;;;15.44;77.09;98888.75;5119815;27;42366;-81
2021/08/29 01:16:36;;;;;;;0.60;0.60;;;;;;;15.50;77.11;98895.41;5107332;27;40153;-81
2021/08/29 01:19:11;;;;;;;0.43;0.43;;;;;;;15.49;76.92;98904.38;5093404;28;41704;-82
2021/08/29 01:21:44;;;;;;;0.77;0.63;;;;;;;15.41;76.99;98889.84;5115105;27;42567;-82
2021/08/29 01:24:16;;;;;;;0.73;0.60;;;;;;;15.49;76.83;98899.03;5104000;27;42511;-80
2021/08/29 01:26:55;;;;;;;0.70;0.70;;;;;;;15.38;76.86;98881.22;5113428;27;39843;-81
2021/08/29 01:29:29;;;;;;;0.40;0.40;;;;;;;15.49;77.21;98891.03;5109279;27;41064;-82
2021/08/29 01:32:01;;;;;;;0.50;0.50;;;;;;;15.51;76.88;98891.75;5117139;27;43017;-82
2021/08/29 01:34:29;;;;;;;0.57;0.57;;;;;;;15.43;76.80;98890.56;5100500;28;41190;-82
2021/08/29 01:37:17;;;;;;;0.50;0.50;;;;;;;15.52;77.06;98898.78;5112924;27;38943;-82
2021/08/29 01:39:47;;;;;;;0.60;0.60;;;;;;;15.51;77.06;98899.75;5111470;27;41931;-82
2021/08/29 01:42:20;;;;;;;0.60;0.60;;;;;;;15.54;77.29;98903.03;5112009;27;43312;-81
2021/08/29 01:44:49;;;;;;;0.40;0.40;;;;;;;15.58;77.15;98901.00;5112538;27;42561;-82
2021/08/29 01:47:18;;;;;;;0.50;0.50;;;;;;;15.60;77.03;98902.53;5094981;27;38883;-83
2021/08/29 01:49:47;;;;;;;0.63;0.60;;;;;;;15.61;77.08;98904.25;5111901;27;42738;-82
2021/08/29 01:52:15;;;;;;;0.50;0.50;;;;;;;15.61;76.86;98898.91;5094799;27;41698;-83
2021/08/29 01:54:59;;;;;;;0.73;0.73;;;;;;;15.56;77.13;98889.59;5095720;27;41358;-83
2021/08/29 01:57:43;;;;;;;0.63;0.63;;;;;;;15.58;77.35;98893.00;5094903;27;39291;-83
2021/08/29 02:00:21;;;;;;;0.70;0.70;;;;;;;15.57;77.22;98892.16;5112955;27;41993;-83
2021/08/29 02:02:49;;;;;;;0.70;0.70;;;;;;;15.50;77.18;98874.03;5094582;27;42155;-83
2021/08/29 02:05:17;;;;;;;0.70;0.60;;;;;;;15.50;77.44;98874.88;5094462;27;42474;-83
2021/08/29 02:07:48;;;;;;;0.77;0.77;;;;;;;15.56;77.55;98885.09;5111844;27;40128;-82
2021/08/29 02:10:37;;;;;;;0.43;0.43;;;;;;;15.49;77.37;98878.53;5094782;27;41116;-83
2021/08/29 02:13:29;;;;;;;1.03;0.50;;;;;;;15.55;78.09;98879.91;5130819;27;43753;-82
2021/08/29 02:16:06;;;;;;;1.40;0.60;;;;;;;15.54;77.94;98887.03;5114372;27;42214;-82
2021/08/29 02:18:36;;;;;;;0.87;0.80;;;;;;;15.56;77.57;98885.09;5130488;27;40769;-82
2021/08/29 02:21:05;;;;;;;0.80;0.80;;;;;;;15.57;77.46;98891.28;5131315;27;42993;-82
2021/08/29 02:23:34;;;;;;;0.70;0.70;;;;;;;15.48;77.83;98863.50;5116279;27;42227;-82
2021/08/29 02:26:02;;;;;;;1.00;0.90;;;;;;;15.53;78.08;98876.47;5118975;27;41505;-83
2021/08/29 02:28:31;;;;;;;1.13;0.80;;;;;;;15.44;77.72;98865.59;5109165;27;39926;-82
2021/08/29 02:31:01;;;;;;;0.70;0.70;;;;;;;15.43;77.88;98863.88;5099765;27;40987;-84
2021/08/29 02:33:29;;;;;;;0.83;0.83;;;;;;;15.42;78.22;98867.53;5098920;27;42077;-83
2021/08/29 02:35:59;;;;;;;1.27;1.17;;;;;;;15.37;78.42;98859.03;5113663;27;42351;-82
2021/08/29 02:38:31;;;;;;;0.80;0.80;;;;;;;15.46;78.53;98871.63;5089483;27;38843;-83
2021/08/29 02:41:00;;;;;;;0.50;0.50;;;;;;;15.39;78.18;98865.09;5109056;27;41828;-83
2021/08/29 02:43:29;;;;;;;0.43;0.43;;;;;;;15.46;78.48;98876.94;5096540;27;42173;-84
2021/08/29 02:46:01;;;;;;;0.60;0.60;;;;;;;15.43;78.43;98866.56;5098998;27;41466;-84
2021/08/29 02:48:34;;;;;;;0.80;0.80;;;;;;;15.46;78.45;98868.94;5097902;27;40157;-83
2021/08/29 02:51:02;;;;;;;0.40;0.40;;;;;;;15.48;78.51;98881.31;5098343;27;40531;-84
2021/08/29 02:53:30;;;;;;;0.60;0.60;;;;;;;15.41;78.27;98863.16;5097047;27;41879;-83
2021/08/29 02:56:00;;;;;;;0.67;0.67;;;;;;;15.49;78.43;98878.53;5098989;27;42095;-83
2021/08/29 02:58:34;;;;;;;0.60;0.60;;;;;;;15.46;78.05;98863.59;5114578;27;40086;-83
2021/08/29 03:01:06;;;;;;;0.50;0.50;;;;;;;15.52;78.20;98866.75;5133344;27;41871;-84
2021/08/29 03:04:09;;;;;;;1.13;1.03;;;;;;;15.41;77.95;98855.16;5097484;27;41633;-84
2021/08/29 03:06:39;;;;;;;0.70;0.70;;;;;;;15.45;78.11;98856.56;5097964;27;41356;-84
2021/08/29 03:09:08;;;;;;;0.70;0.70;;;;;;;15.41;77.83;98847.16;5098002;27;40076;-84
2021/08/29 03:11:40;;;;;;;0.80;0.80;;;;;;;15.29;78.19;98826.81;5114721;27;41853;-84
2021/08/29 03:14:08;;;;;;;0.90;0.80;;;;;;;15.42;78.01;98853.34;5096297;27;41693;-83
2021/08/29 03:16:39;;;;;;;0.60;0.60;;;;;;;15.39;78.20;98851.75;5097828;27;42141;-85
2021/08/29 03:19:36;;;;;;;0.77;0.77;;;;;;;15.48;77.93;98850.13;5101435;27;38949;-85
2021/08/29 03:22:26;;;;;;;0.47;0.47;;;;;;;15.45;78.13;98847.75;5096321;27;40741;-86
2021/08/29 03:24:57;;;;;;;0.60;0.53;;;;;;;15.46;78.40;98852.09;5097971;27;42066;-83
2021/08/29 03:27:26;;;;;;;0.73;0.70;;;;;;;15.30;78.50;98825.84;5097160;27;41474;-85
2021/08/29 03:29:54;;;;;;;0.60;0.60;;;;;;;15.39;78.43;98835.75;5114892;27;39973;-86
2021/08/29 03:32:24;;;;;;;1.40;1.30;;;;;;;15.41;78.25;98839.16;5114486;27;42858;-84
2021/08/29 03:34:59;;;;;;;0.40;0.40;;;;;;;15.50;78.52;98834.00;5096963;27;41691;-83
2021/08/29 03:37:27;;;;;;;0.83;0.83;;;;;;;15.49;78.36;98840.31;5083592;27;41400;-86
2021/08/29 03:39:57;;;;;;;1.83;1.00;;;;;;;15.48;78.49;98833.28;5097645;27;39045;-84
2021/08/29 03:42:25;;;;;;;0.50;0.50;;;;;;;15.41;78.71;98828.47;5096642;27;40775;-84
2021/08/29 03:44:58;;;;;;;0.40;0.40;;;;;;;15.42;78.47;98827.50;5097252;27;42103;-85
2021/08/29 03:47:28;;;;;;;1.13;0.83;;;;;;;15.52;78.59;98834.72;5113435;27;41315;-86
2021/08/29 03:49:56;;;;;;;0.70;0.70;;;;;;;15.53;78.68;98836.44;5114173;27;39944;-85
2021/08/29 03:52:31;;;;;;;0.37;0.37;;;;;;;15.45;78.48;98823.72;5113761;27;41786;-85
2021/08/29 03:55:10;;;;;;;0.40;0.40;;;;;;;15.46;78.55;98823.56;5097226;27;42359;-84
2021/08/29 03:57:40;;;;;;;1.20;1.10;;;;;;;15.50;78.76;98826.84;5096422;27;41114;-84
2021/08/29 04:00:09;;;;;;;0.90;0.63;;;;;;;15.40;78.55;98805.41;5097641;27;38910;-85
2021/08/29 04:02:55;;;;;;;0.50;0.50;;;;;;;15.50;78.72;98826.84;5096647;27;40619;-84
2021/08/29 04:05:56;;;;;;;0.57;0.50;;;;;;;15.46;78.46;98815.56;5091243;27;42803;-84
2021/08/29 04:08:30;;;;;;;0.57;0.57;;;;;;;15.52;78.52;98824.91;5095134;27;41340;-85
2021/08/29 04:11:00;;;;;;;0.63;0.60;;;;;;;15.53;78.41;98823.09;5097267;27;40302;-84
2021/08/29 04:13:30;;;;;;;0.80;0.80;;;;;;;15.64;78.74;98834.59;5097267;27;40702;-84
2021/08/29 04:16:08;;;;;;;0.83;0.83;;;;;;;15.61;78.55;98828.66;5096259;27;43416;-85
2021/08/29 04:18:41;;;;;;;0.63;0.63;;;;;;;15.64;78.72;98823.06;5096786;27;42434;-84
2021/08/29 04:21:11;;;;;;;0.57;0.57;;;;;;;15.71;78.74;98840.25;5114210;27;40936;-84
2021/08/29 04:23:39;;;;;;;0.60;0.60;;;;;;;15.72;78.77;98832.13;5113859;27;41818;-84
2021/08/29 04:26:08;;;;;;;0.50;0.47;;;;;;;15.68;78.23;98832.53;5097086;27;42087;-85
2021/08/29 04:28:37;;;;;;;0.60;0.60;;;;;;;15.74;78.53;98829.31;5114215;27;42394;-84
2021/08/29 04:31:09;;;;;;;1.70;1.20;;;;;;;15.73;78.60;98828.47;5096125;27;39307;-86
2021/08/29 04:33:45;;;;;;;0.50;0.50;;;;;;;15.77;78.35;98835.25;5097359;27;41978;-83
2021/08/29 04:36:48;;;;;;;0.73;0.60;;;;;;;15.77;78.44;98823.72;5011893;28;41719;-85
2021/08/29 04:39:32;;;;;;;0.87;0.70;;;;;;;15.72;78.48;98815.25;5068749;28;41344;-85
2021/08/29 04:42:01;;;;;;;0.40;0.40;;;;;;;15.80;78.52;98821.66;5076021;28;38884;-85
2021/08/29 04:44:29;;;;;;;0.53;0.53;;;;;;;15.84;78.33;98821.38;5075062;28;41976;-85
2021/08/29 04:46:57;;;;;;;0.60;0.60;;;;;;;15.74;78.77;98802.63;5092400;28;41763;-85
2021/08/29 04:49:28;;;;;;;0.63;0.60;;;;;;;15.74;78.95;98813.28;5074843;28;41516;-85
2021/08/29 04:51:56;;;;;;;0.80;0.80;;;;;;;15.74;78.77;98802.63;5077017;28;39820;-85
2021/08/29 04:54:25;;;;;;;0.50;0.50;;;;;;;15.71;78.92;98801.06;5093265;28;42739;-85
2021/08/29 04:56:52;;;;;;;1.07;0.83;;;;;;;15.73;78.85;98801.78;5075379;28;45949;-85
2021/08/29 04:59:20;;;;;;;0.60;0.50;;;;;;;15.73;78.82;98800.91;5091737;28;41507;-85
2021/08/29 05:01:48;;;;;;;0.60;0.60;;;;;;;15.77;78.83;98802.38;5076090;28;39951;-85
2021/08/29 05:04:17;;;;;;;0.50;0.50;;;;;;;15.86;78.75;98817.59;5093480;28;41629;-84
2021/08/29 05:06:46;;;;;;;0.43;0.43;;;;;;;15.90;79.19;98828.88;5087573;28;41702;-85
2021/08/29 05:09:17;;;;;;;0.60;0.60;;;;;;;15.92;78.95;98811.75;5087768;28;42081;-84
2021/08/29 05:11:45;;;;;;;0.33;0.33;;;;;;;15.90;79.32;98815.53;5075361;28;38932;-85
2021/08/29 05:14:13;;;;;;;0.60;0.60;;;;;;;15.85;79.40;98799.03;5093058;28;42017;-84
2021/08/29 05:16:41;;;;;;;0.57;0.57;;;;;;;15.78;79.50;98788.03;5074255;28;42090;-84
2021/08/29 05:19:09;;;;;;;0.70;0.70;;;;;;;15.96;79.22;98813.16;5075016;28;41011;-84
2021/08/29 05:21:37;;;;;;;0.60;0.60;;;;;;;15.92;79.24;98805.56;5076258;28;39778;-84
2021/08/29 05:24:25;;;;;;;0.57;0.57;;;;;;;16.01;79.03;98812.78;5110781;28;41631;-84
2021/08/29 05:26:55;;;;;;;0.33;0.33;;;;;;;15.96;79.02;98802.47;5092995;28;42692;-84
2021/08/29 05:29:23;;;;;;;0.50;0.50;;;;;;;15.98;78.99;98805.03;5075840;28;41491;-84
2021/08/29 05:31:54;;;;;;;0.60;0.60;;;;;;;15.93;79.14;98796.56;5075200;28;39044;-84
2021/08/29 05:34:29;;;;;;;0.43;0.43;;;;;;;16.12;79.26;98818.06;5092035;28;41942;-84
2021/08/29 05:36:58;;;;;;;0.30;0.30;;;;;;;16.13;79.03;98825.09;5104941;27;41789;-84
2021/08/29 05:39:28;;;;;;;0.50;0.43;;;;;;;16.20;78.95;98830.75;5095836;27;41454;-84
2021/08/29 05:41:56;;;;;;;0.70;0.70;;;;;;;16.16;78.98;98814.16;5112374;27;40168;-84
2021/08/29 05:44:35;;;;;;;0.33;0.33;;;;;;;16.19;78.72;98810.38;5113017;27;41977;-84
2021/08/29 05:47:03;;;;;;;0.50;0.50;;;;;;;16.23;78.66;98820.66;5088881;28;42677;-84
2021/08/29 05:49:35;;;;;;;0.70;0.70;;;;;;;16.21;78.41;98816.41;5082450;28;41330;-84
2021/08/29 05:52:04;;;;;;;0.43;0.43;;;;;;;16.27;78.57;98807.88;5075742;28;40005;-84
2021/08/29 05:54:34;;;;;;;0.67;0.40;;;;;;;16.42;78.58;98827.94;5092033;28;40643;-84
2021/08/29 05:57:02;;;;;;;1.83;0.50;;;;;;;16.42;78.17;98820.75;5075624;28;44486;-84
2021/08/29 05:59:30;;;;;;;0.80;0.40;;;;;;;16.57;77.89;98815.88;5093681;28;42055;-84
2021/08/29 06:01:57;;;;;;;0.30;0.30;;;;;;;16.62;77.73;98811.03;5096175;28;39329;-84
2021/08/29 06:04:28;;;;;;;0.40;0.40;;;;;;;16.76;77.66;98818.69;5078859;28;40646;-83
2021/08/29 06:07:13;;;;;;;0.47;0.47;;;;;;;16.85;77.46;98817.84;5079060;28;41757;-84
2021/08/29 06:09:49;;;;;;;0.37;0.37;;;;;;;16.99;77.09;98818.44;5096236;28;41118;-84
2021/08/29 06:12:18;;;;;;;0.60;0.40;;;;;;;17.07;77.36;98813.25;5095499;28;39050;-84
2021/08/29 06:14:45;;;;;;;0.30;0.30;;;;;;;17.14;77.12;98812.59;5077473;27;41670;-84
2021/08/29 06:17:14;;;;;;;0.43;0.43;;;;;;;17.15;76.62;98808.91;5094195;27;41988;-84
2021/08/29 06:19:42;;;;;;;0.43;0.43;;;;;;;17.14;76.78;98817.09;5096661;27;42574;-84
2021/08/29 06:22:09;;;;;;;0.50;0.50;;;;;;;17.16;76.72;98804.41;5094032;27;38986;-85
2021/08/29 06:24:51;;;;;;;0.40;0.40;;;;;;;17.18;76.59;98807.81;5098444;27;40755;-84
2021/08/29 06:27:37;;;;;;;0.40;0.40;;;;;;;17.22;76.44;98818.06;5115947;27;43095;-84
2021/08/29 06:30:25;;;;;;;0.27;0.27;;;;;;;17.24;76.51;98816.13;5134027;27;43268;-84
2021/08/29 06:33:11;;;;;;;0.40;0.40;;;;;;;17.24;76.47;98807.25;5112844;27;39273;-84
2021/08/29 06:35:44;;;;;;;0.40;0.40;;;;;;;17.33;76.43;98811.75;5099077;27;40657;-84
2021/08/29 06:38:13;;;;;;;0.50;0.50;;;;;;;17.43;76.55;98817.94;5097936;27;41909;-84
2021/08/29 06:40:42;;;;;;;0.50;0.50;;;;;;;17.58;76.04;98821.06;5098457;27;41350;-84
2021/08/29 06:43:10;;;;;;;0.40;0.40;;;;;;;17.50;75.77;98792.31;5114861;27;40222;-83
2021/08/29 06:45:58;;;;;;;0.83;0.50;;;;;;;17.86;75.75;98822.06;5052497;28;41968;-83
2021/08/29 06:48:33;;;;;;;0.30;0.30;;;;;;;17.92;75.50;98806.28;5113441;27;42012;-84
2021/08/29 06:51:06;;;;;;;0.27;0.27;;;;;;;18.11;75.42;98813.44;5115129;27;41561;-83
2021/08/29 06:54:03;;;;;;;0.20;0.20;;;;;;;18.19;75.05;98810.03;5053583;28;38964;-83
2021/08/29 06:56:51;;;;;;;0.30;0.30;;;;;;;18.33;75.09;98822.13;5126512;27;42097;-84
2021/08/29 06:59:25;;;;;;;0.40;0.40;;;;;;;18.34;74.89;98819.31;5107351;27;42412;-83
2021/08/29 07:01:53;;;;;;;0.40;0.40;;;;;;;18.25;74.64;98804.94;5097409;27;42045;-83
2021/08/29 07:04:20;;;;;;;0.50;0.50;;;;;;;18.27;74.72;98811.00;5089961;28;39090;-84
2021/08/29 07:06:49;;;;;;;0.30;0.30;;;;;;;18.23;74.95;98817.63;5073843;28;41474;-83
2021/08/29 07:09:55;;;;;;;0.30;0.30;;;;;;;18.06;75.11;98804.97;5074779;28;42734;-84
2021/08/29 07:12:25;;;;;;;0.40;0.40;;;;;;;18.10;75.03;98811.75;5035253;28;42182;-83
2021/08/29 07:15:16;;;;;;;0.30;0.30;;;;;;;18.06;75.00;98807.66;5059371;28;39142;-82
2021/08/29 07:17:46;;;;;;;0.40;0.40;;;;;;;18.16;74.99;98811.19;5077571;28;40618;-83
2021/08/29 07:20:32;;;;;;;0.20;0.20;;;;;;;18.27;74.87;98819.06;5095308;27;41755;-82
2021/08/29 07:23:19;;;;;;;0.30;0.30;;;;;;;18.23;74.38;98814.13;5114232;27;41705;-82
2021/08/29 07:26:05;;;;;;;0.30;0.30;;;;;;;18.16;74.83;98816.53;5112541;27;39223;-83
2021/08/29 07:28:53;;;;;;;0.30;0.30;;;;;;;18.02;75.12;98800.06;5122719;27;41417;-83
2021/08/29 07:31:39;;;;;;;0.30;0.30;;;;;;;18.05;74.89;98818.53;5114703;27;43258;-84
2021/08/29 07:34:07;;;;;;;0.30;0.30;;;;;;;18.01;74.93;98801.91;5097764;27;41332;-83
2021/08/29 07:36:55;;;;;;;0.30;0.30;;;;;;;18.01;74.70;98817.97;5133510;27;39976;-84
2021/08/29 07:39:22;;;;;;;0.30;0.30;;;;;;;18.05;74.30;98819.34;5097729;27;40757;-83
2021/08/29 07:41:50;;;;;;;0.40;0.40;;;;;;;18.08;74.19;98823.59;5097526;27;41729;-84
2021/08/29 07:44:27;;;;;;;0.30;0.27;;;;;;;17.96;74.22;98788.06;5097075;27;41669;-83
2021/08/29 07:46:56;;;;;;;0.30;0.30;;;;;;;18.13;74.53;98808.78;5091535;28;39420;-84
2021/08/29 07:49:23;;;;;;;0.27;0.27;;;;;;;18.15;74.02;98798.75;5087322;27;40543;-84
2021/08/29 07:51:59;;;;;;;0.30;0.30;;;;;;;18.20;74.18;98793.78;5096931;27;42128;-83
2021/08/29 07:55:04;;;;;;;0.30;0.30;;;;;;;18.21;74.22;98803.53;5091235;27;41255;-84
2021/08/29 07:57:50;;;;;;;0.30;0.30;;;;;;;18.05;74.20;98776.47;5113563;27;40721;-85
2021/08/29 08:00:27;;;;;;;0.30;0.30;;;;;;;18.13;74.05;98795.38;5113305;27;42067;-84
2021/08/29 08:03:20;;;;;;;0.30;0.30;;;;;;;18.26;74.18;98812.00;5112537;27;41911;-85
2021/08/29 08:06:07;;;;;;;0.20;0.20;;;;;;;18.27;74.27;98810.16;5110040;28;42310;-84
2021/08/29 08:08:54;;;;;;;0.20;0.20;;;;;;;18.21;74.13;98802.69;5140111;27;40338;-83
2021/08/29 08:11:22;;;;;;;0.50;0.50;;;;;;;18.35;74.00;98820.16;5109840;27;42436;-84
2021/08/29 08:13:50;;;;;;;0.47;0.47;;;;;;;18.14;73.91;98791.72;5094649;27;43480;-84
2021/08/29 08:16:20;;;;;;;0.40;0.40;;;;;;;18.38;73.97;98822.53;5096102;27;41179;-85
2021/08/29 08:18:48;;;;;;;0.30;0.30;;;;;;;18.35;73.80;98810.28;5096560;27;39230;-83
2021/08/29 08:21:18;;;;;;;0.37;0.37;;;;;;;18.42;73.85;98816.72;5081341;28;41230;-85
2021/08/29 08:23:45;;;;;;;0.87;0.87;;;;;;;18.50;73.77;98816.00;5093052;28;43088;-84
2021/08/29 08:26:29;;;;;;;0.47;0.47;;;;;;;18.62;73.92;98817.53;5092861;28;41460;-85
2021/08/29 08:29:17;;;;;;;0.77;0.50;;;;;;;18.66;73.81;98816.28;5110866;27;39302;-86
2021/08/29 08:32:05;;;;;;;0.67;0.53;;;;;;;18.70;73.77;98814.97;5133899;27;41066;-85
2021/08/29 08:34:53;;;;;;;0.70;0.70;;;;;;;18.72;73.82;98804.94;5116269;27;41881;-87
2021/08/29 08:37:40;;;;;;;0.90;0.70;;;;;;;18.81;73.65;98814.75;5108633;27;41788;-85
2021/08/29 08:40:22;;;;;;;0.40;0.40;;;;;;;18.76;73.40;98790.25;5084987;27;39205;-86
2021/08/29 08:42:52;;;;;;;0.50;0.50;;;;;;;19.04;73.77;98830.50;5075627;28;40893;-86
2021/08/29 08:45:41;;;;;;;0.73;0.60;;;;;;;18.93;73.24;98823.47;5061260;28;43113;-86
2021/08/29 08:48:30;;;;;;;0.50;0.50;;;;;;;18.67;73.19;98801.84;5100703;27;43779;-86
2021/08/29 08:51:23;;;;;;;0.30;0.30;;;;;;;18.63;73.33;98792.41;5106129;27;40582;-85
2021/08/29 08:54:26;;;;;;;0.30;0.30;;;;;;;18.88;73.22;98823.94;5112171;27;40995;-84
2021/08/29 08:57:17;;;;;;;0.30;0.30;;;;;;;19.09;73.02;98837.09;5131466;27;43882;-85
2021/08/29 08:59:57;;;;;;;0.23;0.23;;;;;;;19.26;72.54;98817.47;5089706;27;42162;-86
2021/08/29 09:02:49;;;;;;;0.20;0.20;;;;;;;19.53;71.98;98823.84;5064775;27;40232;-85
2021/08/29 09:05:37;;;;;;;0.30;0.30;;;;;;;19.82;71.51;98835.16;5096070;27;40907;-85
2021/08/29 09:08:25;;;;;;;0.40;0.40;;;;;;;19.80;71.14;98801.38;5104022;27;42235;-86
2021/08/29 09:10:53;;;;;;;0.43;0.43;;;;;;;20.07;71.24;98837.06;5116197;27;41802;-85
2021/08/29 09:13:21;;;;;;;0.30;0.30;;;;;;;19.87;70.74;98816.75;5111969;27;38911;-85
2021/08/29 09:15:49;;;;;;;0.30;0.30;;;;;;;19.82;70.52;98818.19;5095491;27;40795;-83
2021/08/29 09:18:17;;;;;;;0.40;0.40;;;;;;;19.76;70.71;98829.59;5112842;27;42915;-85
2021/08/29 09:20:48;;;;;;;0.33;0.33;;;;;;;19.65;71.04;98823.44;5093419;27;41428;-85
2021/08/29 09:23:19;;;;;;;0.40;0.40;;;;;;;19.65;70.27;98839.56;5112386;27;39205;-85
2021/08/29 09:25:47;;;;;;;0.50;0.50;;;;;;;19.50;70.64;98819.59;5126212;27;41761;-84
2021/08/29 09:28:33;;;;;;;0.53;0.53;;;;;;;19.37;70.74;98819.09;5112775;27;41898;-85
2021/08/29 09:31:08;;;;;;;0.40;0.40;;;;;;;19.41;71.13;98831.22;5112438;27;41353;-86
2021/08/29 09:33:39;;;;;;;0.40;0.40;;;;;;;19.35;71.60;98821.09;5095227;27;38900;-86
2021/08/29 09:36:14;;;;;;;0.50;0.47;;;;;;;19.12;71.29;98784.94;5112090;27;42243;-86
2021/08/29 09:38:43;;;;;;;1.23;0.80;;;;;;;19.34;71.39;98832.81;5120329;27;43139;-85
2021/08/29 09:41:44;;;;;;;0.70;0.70;;;;;;;19.30;71.84;98823.38;5109898;27;42951;-84
2021/08/29 09:44:15;;;;;;;0.50;0.50;;;;;;;19.29;72.08;98821.69;5131634;27;39184;-83
2021/08/29 09:46:54;;;;;;;0.50;0.50;;;;;;;19.29;72.31;98821.69;5101739;27;42198;-84
2021/08/29 09:49:44;;;;;;;0.97;0.60;;;;;;;19.26;72.22;98822.00;5116289;27;42175;-84
2021/08/29 09:52:34;;;;;;;0.57;0.57;;;;;;;19.26;72.31;98816.66;5127555;27;42689;-84
2021/08/29 09:55:27;;;;;;;0.90;0.70;;;;;;;19.23;72.08;98811.56;5119203;27;41203;-83
2021/08/29 09:58:22;;;;;;;0.60;0.60;;;;;;;19.40;72.16;98824.19;5125677;27;41985;-84
2021/08/29 10:01:11;;;;;;;0.80;0.77;;;;;;;19.38;71.44;98805.53;5132677;27;43951;-84
2021/08/29 10:03:45;;;;;;;0.30;0.30;;;;;;;19.58;71.78;98819.69;5098532;28;41163;-84
2021/08/29 10:06:17;;;;;;;0.40;0.40;;;;;;;19.71;71.40;98828.19;5124578;27;40273;-84
2021/08/29 10:08:49;;;;;;;0.67;0.67;;;;;;;19.76;71.58;98808.94;5106988;28;41029;-84
2021/08/29 10:11:29;;;;;;;0.43;0.40;;;;;;;19.75;71.28;98809.94;5105888;27;41687;-84
2021/08/29 10:13:59;;;;;;;0.40;0.40;;;;;;;19.67;71.35;98813.38;5113646;27;41649;-85
2021/08/29 10:16:28;;;;;;;0.43;0.43;;;;;;;19.56;71.34;98802.00;5129729;27;39910;-84
2021/08/29 10:19:01;;;;;;;0.50;0.50;;;;;;;19.51;71.43;98815.94;5122106;27;40735;-83
2021/08/29 10:21:49;;;;;;;0.50;0.50;;;;;;;19.39;71.81;98814.44;5121941;27;41950;-83
2021/08/29 10:24:20;;;;;;;0.97;0.53;;;;;;;19.34;72.46;98811.34;5113191;27;43223;-83
2021/08/29 10:26:52;;;;;;;0.60;0.60;;;;;;;19.29;72.31;98810.94;5112467;27;39396;-83
2021/08/29 10:29:29;;;;;;;0.83;0.60;;;;;;;19.28;72.40;98811.97;5130639;27;41395;-84
2021/08/29 10:32:27;;;;;;;0.93;0.70;;;;;;;19.27;72.24;98816.50;5149882;27;43208;-84
2021/08/29 10:35:16;;;;;;;0.50;0.50;;;;;;;19.24;72.28;98802.50;5150866;27;42438;-84
2021/08/29 10:37:47;;;;;;;0.57;0.57;;;;;;;19.38;72.36;98812.75;5124933;27;40126;-84
2021/08/29 10:40:46;;;;;;;0.63;0.63;;;;;;;19.55;72.20;98811.06;5034061;28;40886;-83
2021/08/29 10:43:21;;;;;;;0.43;0.43;;;;;;;19.54;71.90;98799.47;5079172;27;42196;-83
2021/08/29 10:46:09;;;;;;;0.93;0.80;;;;;;;19.70;72.31;98813.06;5112249;27;41773;-83
2021/08/29 10:48:57;;;;;;;0.60;0.60;;;;;;;19.79;72.12;98813.13;5117463;27;40649;-83
2021/08/29 10:51:33;;;;;;;0.93;0.70;;;;;;;19.77;72.18;98801.72;5107026;27;40967;-84
2021/08/29 10:54:01;;;;;;;0.60;0.60;;;;;;;19.76;71.17;98808.09;5094335;28;42028;-83
2021/08/29 10:56:34;;;;;;;0.30;0.30;;;;;;;19.79;71.38;98822.03;5129975;27;42508;-82
2021/08/29 10:59:26;;;;;;;0.57;0.53;;;;;;;19.85;71.48;98817.91;5123185;27;40235;-84
2021/08/29 11:02:15;;;;;;;1.00;1.00;;;;;;;19.99;70.80;98810.13;5133499;28;43122;-83
2021/08/29 11:04:58;;;;;;;1.07;1.00;;;;;;;20.00;70.07;98794.84;5142119;27;44410;-84
2021/08/29 11:07:59;;;;;;;0.80;0.80;;;;;;;20.21;69.98;98808.75;5129332;27;42474;-83
2021/08/29 11:10:48;;;;;;;0.50;0.50;;;;;;;20.47;69.84;98810.63;5138943;27;39426;-83
2021/08/29 11:13:41;;;;;;;0.80;0.63;;;;;;;20.95;68.57;98807.31;5125319;28;41695;-82
2021/08/29 11:16:22;;;;;;;0.60;0.60;;;;;;;21.50;68.03;98807.69;5125448;27;42869;-82
2021/08/29 11:19:13;;;;;;;0.80;0.80;;;;;;;22.02;66.06;98797.44;5105609;27;41351;-82
2021/08/29 11:22:19;;;;;;;0.40;0.40;;;;;;;22.26;64.59;98798.41;5139495;27;40537;-82
2021/08/29 11:25:21;;;;;;;0.60;0.60;;;;;;;22.45;63.00;98800.75;5041153;28;40766;-81
2021/08/29 11:27:59;;;;;;;0.60;0.60;;;;;;;22.61;62.43;98802.56;5102965;28;43177;-82
2021/08/29 11:30:47;;;;;;;0.50;0.50;;;;;;;22.50;61.79;98804.59;5109062;27;42565;-81
2021/08/29 11:33:27;;;;;;;0.60;0.60;;;;;;;22.38;62.36;98797.88;5104771;27;40286;-81
2021/08/29 11:36:04;;;;;;;0.50;0.43;;;;;;;22.26;63.38;98798.41;5097642;28;40766;-81
2021/08/29 11:38:57;;;;;;;0.67;0.67;;;;;;;22.01;64.27;98784.13;5106000;27;42735;-81
2021/08/29 11:41:25;;;;;;;0.60;0.60;;;;;;;21.93;64.65;98792.19;5102004;28;41364;-81
2021/08/29 11:43:54;;;;;;;0.50;0.50;;;;;;;21.64;65.53;98774.66;5104757;28;40189;-81
2021/08/29 11:46:39;;;;;;;0.50;0.50;;;;;;;21.48;65.99;98790.84;5115457;27;42012;-81
2021/08/29 11:49:13;;;;;;;0.40;0.40;;;;;;;21.10;66.52;98785.00;5108359;27;41832;-82
2021/08/29 11:52:02;;;;;;;0.40;0.40;;;;;;;20.97;66.87;98790.00;5099124;27;40944;-82
2021/08/29 11:54:34;;;;;;;0.40;0.40;;;;;;;21.05;67.47;98789.19;5116557;27;40279;-81
2021/08/29 11:57:03;;;;;;;0.43;0.43;;;;;;;21.21;66.80;98785.72;5105686;27;42166;-82
2021/08/29 11:59:33;;;;;;;0.30;0.30;;;;;;;21.34;66.77;98780.72;5091137;28;41756;-82
2021/08/29 12:02:10;;;;;;;0.50;0.30;;;;;;;21.45;67.45;98789.31;5111812;27;42595;-82
2021/08/29 12:04:52;;;;;;;0.37;0.37;;;;;;;21.40;67.72;98782.72;5119928;27;39840;-81
2021/08/29 12:07:39;;;;;;;0.20;0.20;;;;;;;21.37;68.18;98793.84;5111675;27;40738;-81
2021/08/29 12:10:26;;;;;;;0.20;0.20;;;;;;;21.12;67.26;98777.59;5121646;27;43091;-82
2021/08/29 12:13:13;;;;;;;0.23;0.23;;;;;;;20.96;67.60;98788.31;5109833;27;41643;-81
2021/08/29 12:16:02;;;;;;;0.30;0.30;;;;;;;20.65;67.32;98771.88;5100677;28;40385;-81